Fernhurst, United Kingdom
Current Conditions -  °F | °C
As of 5:50 PM on Tuesday 21 Oct 2014 (Local Time) from EGLF Reporting Station
Rain Showers Rain Showers  
Wind Chill: 52°   Ceiling: Unl
Heat Index: 52°   Visibility: 6mi
Dew Point: 39°   Wind: 14mph
Humidity: 62%   Direction: 290°WNW
Pressure: 29.94"   Gusts: 29mph
Location:  51.05°N, 0.72°W
Report Text: EGLF 211650Z 29012G25KT 260V320 9999 VCSH SCT040 11/04 Q1014
Loading
Personal Weather Stations






























Interactive Weather Map New forecast layout! Learn more

10-Day Weather Forecast

Advertisements
Track Severe Weather on mobile